This is the latest recevied weather packets stored in our database for station/object K5KVN. If no packets are shown the sender has not sent any weather packets the latest 10 day(s).
| Time | Temp. | Humidity | Pressure | Rain* | Wind** | Luminosity | Snow |
|---|---|---|---|---|---|---|---|
| 1787595867 | 28.89° C | 70% | 1016.4 hPa | 0 mm | - | - | - |
| 1787595266 | 28.89° C | 70% | 1016.3 hPa | 0 mm | - | - | - |
| 1787594667 | 28.89° C | 71% | 1016.4 hPa | 0 mm | - | - | - |
| 1787594126 | 28.33° C | 71% | 1016.4 hPa | 0 mm | - | - | - |
| 1787593467 | 28.33° C | 72% | 1016.6 hPa | 0 mm | - | - | - |
| 1787592927 | 28.33° C | 73% | 1016.5 hPa | 0 mm | - | - | - |
| 1787592266 | 28.33° C | 71% | 1016.5 hPa | 0 mm | - | - | - |
| 1787591667 | 28.89° C | 71% | 1016.5 hPa | 0 mm | - | - | - |
| 1787591067 | 28.89° C | 71% | 1016.6 hPa | 0 mm | - | - | - |
| 1787590467 | 28.33° C | 71% | 1016.6 hPa | 0 mm | - | - | - |
| 1787589866 | 27.78° C | 73% | 1016.8 hPa | 0 mm | - | - | - |
| 1787589266 | 26.67° C | 75% | 1016.7 hPa | 0 mm | - | - | - |
| 1787588666 | 26.67° C | 76% | 1016.7 hPa | 0 mm | - | - | - |
| 1787588066 | 26.67° C | 74% | 1016.9 hPa | 0 mm | - | - | - |
| 1787587526 | 26.11° C | 77% | 1017 hPa | 0 mm | - | - | - |
| 1787586866 | 26.11° C | 76% | 1017 hPa | 0 mm | - | - | - |
| 1787586266 | 26.11° C | 76% | 1016.9 hPa | 0 mm | - | - | - |
| 1787585667 | 25.56° C | 79% | 1016.8 hPa | 0 mm | - | - | - |
| 1787585128 | 25° C | 80% | 1016.8 hPa | 0 mm | - | - | - |
| 1787584468 | 24.44° C | 83% | 1016.8 hPa | 0 mm | - | - | - |
| 1787583926 | 23.89° C | 84% | 1016.9 hPa | 0 mm | - | - | - |
| 1787583266 | 23.33° C | 86% | 1017 hPa | 0 mm | - | - | - |
| 1787582666 | 23.33° C | 86% | 1017.3 hPa | 0 mm | - | - | - |
| 1787582067 | 23.33° C | 87% | 1017.4 hPa | 0 mm | - | - | - |
| 1787581466 | 23.33° C | 88% | 1017.2 hPa | 0 mm | - | - | - |
* Rain latest hour (hover to see other rain measurements)
** Current wind speed in m/s (hover to see current wind gust speed)